M I D A S
Marine Information and Data Acquisition System
Tripno 455 of the Zeeleeuw from 2003-03-25 09:09:30 to 2003-03-25 17:48:48
Back to CruiseResearch ActivitiesStationsMapUnderway DataData graphs

EquipmentUnitsComment
TimeDGPSUTC
LatitudeDGPSDM.mWGS84
LongitudeDGPSDM.mWGS84
HeadingGyrodeg 
SOGDGPSknotsSpeed over ground
COGDGPSdegCourse over ground
DepthEcho soundermeters200 kHz
Missing or incorrect values are displayed as -999
Navigation data collected by the RV Zeeleeuw from 2003-03-25 09:09:30 to 2003-03-25 17:48:48
Time Latitude Longitude Heading SOG COG Depth
2003-03-25 09:10:35 51°13.6 2°56.102 116.8 0.1 204 8
2003-03-25 09:11:35 51°13.611 2°56.07 115.4 2.7 296 -999
2003-03-25 09:12:35 51°13.634 2°55.985 114.7 4 294 -999
2003-03-25 09:13:35 51°13.66 2°55.879 110.1 4.3 290 -999
2003-03-25 09:14:33 51°13.674 2°55.783 89.1 3.2 273 9.8
2003-03-25 09:15:33 51°13.673 2°55.746 69 0.4 47 9.7
2003-03-25 09:16:33 51°13.702 2°55.768 5.2 2.8 1 11.1
2003-03-25 09:17:33 51°13.755 2°55.706 327.6 5.5 320 9.6
2003-03-25 09:18:33 51°13.853 2°55.623 338.5 7.6 334 10.1
2003-03-25 09:19:32 51°13.97 2°55.531 338.9 8 335 9.7
2003-03-25 09:20:33 51°14.094 2°55.435 339.6 8.1 335 6.3
2003-03-25 09:21:33 51°14.22 2°55.335 327.7 9 325 9.9
2003-03-25 09:22:33 51°14.326 2°55.148 316.2 9.9 310 8.6
2003-03-25 09:23:33 51°14.452 2°54.986 336.6 9.8 326 9.9
2003-03-25 09:24:33 51°14.59 2°54.85 339.6 9.8 330 9.6
2003-03-25 09:25:33 51°14.749 2°54.704 339.7 12.1 331 9.2
2003-03-25 09:26:33 51°14.927 2°54.542 338.8 12.4 331 9
2003-03-25 09:27:33 51°15.106 2°54.382 339.1 12.4 331 8.5
2003-03-25 09:28:33 51°15.287 2°54.223 339.2 12.4 331 9.2
2003-03-25 09:29:33 51°15.47 2°54.057 339.2 13.2 331 9.9
2003-03-25 09:30:33 51°15.671 2°53.882 338.9 14.1 331 10.7
2003-03-25 09:31:33 51°15.875 2°53.7 338.2 14.1 331 11.3
2003-03-25 09:32:33 51°16.08 2°53.516 338.2 14.1 331 11.9
2003-03-25 09:33:33 51°16.284 2°53.33 337.1 14.1 330 12.2
2003-03-25 09:34:33 51°16.486 2°53.145 337.1 14.1 330 12.1
2003-03-25 09:35:32 51°16.687 2°52.96 337.3 14.1 330 10.9
2003-03-25 09:36:33 51°16.89 2°52.773 337.2 13.8 330 9
2003-03-25 09:37:33 51°17.093 2°52.589 337.4 14 330 9.4
2003-03-25 09:38:33 51°17.3 2°52.416 344.6 14 337 10.1
2003-03-25 09:39:34 51°17.525 2°52.315 358.1 13.8 350 10.2
2003-03-25 09:40:33 51°17.749 2°52.294 7.1 13.7   10.2
2003-03-25 09:41:32 51°17.972 2°52.308 19.5 13.6 12 10.4
2003-03-25 09:42:33 51°18.161 2°52.498 52.8 13.3 46 10.6
2003-03-25 09:43:33 51°18.278 2°52.796 69.2 13.3 64 10.8
2003-03-25 09:44:32 51°18.378 2°53.102 65.3 13.3 60 10.8
2003-03-25 09:45:33 51°18.492 2°53.411 64.3 13.3 59 10.9
2003-03-25 09:46:33 51°18.6 2°53.717 64.9 13.3 59 10.9
2003-03-25 09:47:33 51°18.71 2°54.024 65.5 13.3 60 10.9
2003-03-25 09:48:33 51°18.832 2°54.316 58.4 13.3 53 11
2003-03-25 09:49:32 51°18.963 2°54.592 59.1 13.3 53 11.1
2003-03-25 09:50:34 51°19.107 2°54.875 48.7 13.8 42 11.2
2003-03-25 09:51:34 51°19.294 2°55.066 37.8 13.5 30 11.5
2003-03-25 09:52:34 51°19.489 2°55.243 33.1 13.5 26 11.7
2003-03-25 09:53:34 51°19.701 2°55.36 15.8 13.4 10 11.9
2003-03-25 09:54:34 51°19.927 2°55.329 3.3 13.8 355 12.3
2003-03-25 09:55:34 51°20.158 2°55.302 4.1 13.9 356 12.7
2003-03-25 09:56:34 51°20.387 2°55.275 4.1 13.8 356 13.3
2003-03-25 09:57:34 51°20.618 2°55.25 4.2 13.9 356 14.2
2003-03-25 09:58:33 51°20.845 2°55.225 4.6 14 356 15.3
2003-03-25 09:59:33 51°21.078 2°55.203 4 14 356 16.2
2003-03-25 10:00:34 51°21.313 2°55.181 4 14 356 16.7
2003-03-25 10:01:34 51°21.546 2°55.156 4.1 14 356 16.9
2003-03-25 10:02:34 51°21.779 2°55.135 4.5 14.1 357 17
2003-03-25 10:03:34 51°22.014 2°55.116 4.3 14.2 357 17.4
2003-03-25 10:04:35 51°22.25 2°55.152 19.6 14 12 18.4
2003-03-25 10:05:34 51°22.472 2°55.238 20.7 14 14 17.8
2003-03-25 10:06:34 51°22.7 2°55.321 19.9 14 12 18.2
2003-03-25 10:07:34 51°22.925 2°55.399 19.7 13.9 12 18.8
2003-03-25 10:08:36 51°23.158 2°55.478 19.6 13.8 12 18.9
2003-03-25 10:09:35 51°23.379 2°55.55 19.3 13.7 12 18
2003-03-25 10:10:35 51°23.603 2°55.626 19.3 13.8 12 15.8
2003-03-25 10:11:35 51°23.828 2°55.692 14.7 13.8 8 17.8
2003-03-25 10:12:35 51°24.059 2°55.722 7.6 13.8   20.8
2003-03-25 10:13:35 51°24.291 2°55.695 3.4 14.2 356 22.9
2003-03-25 10:14:35 51°24.528 2°55.663 356.8 14.2 350 24
2003-03-25 10:15:35 51°24.745 2°55.525 339.5 14.3 332 22.7
2003-03-25 10:16:35 51°24.951 2°55.342 338.3 14.1 330 20
2003-03-25 10:17:35 51°25.159 2°55.161 338.9 14.2 331 18.2
2003-03-25 10:18:35 51°25.368 2°54.982 339.3 14.3 332 17.7
2003-03-25 10:19:35 51°25.576 2°54.805 339.6 14.2 332 18.5
2003-03-25 10:20:35 51°25.787 2°54.633 339.9 14.2 333 21.7
2003-03-25 10:21:35 51°25.999 2°54.462 339.9 14.2 333 23
2003-03-25 10:22:41 51°26.241 2°54.281 339.8 4.9 333 23.3
2003-03-25 10:23:45 51°26.468 2°54.099 340.3 14.2 334 30.9
2003-03-25 10:24:45 51°26.676 2°53.926 340.3 14.2 333 31.3
2003-03-25 10:25:45 51°26.886 2°53.755 340.4 14.3 334 26.3
2003-03-25 10:26:45 51°27.103 2°53.586 339.8 14.4 333 25.4
2003-03-25 10:27:45 51°27.317 2°53.412 340.2 14.3 333 26.6
2003-03-25 10:28:45 51°27.527 2°53.238 340.4 14.3 333 19.8
2003-03-25 10:29:45 51°27.727 2°53.036 325.1 14.4 319 20.6
2003-03-25 10:30:45 51°27.845 2°52.707 290.1 14.5 287 19.1
2003-03-25 10:31:45 51°27.854 2°52.323 269.2 14.5 266 20.8
2003-03-25 10:32:45 51°27.818 2°51.935 265.3 14.7 261 21.6
2003-03-25 10:33:45 51°27.794 2°51.552 269.1 14.5 265 21.6
2003-03-25 10:34:45 51°27.773 2°51.171 269.1 14.4 265 22.9
2003-03-25 10:35:45 51°27.748 2°50.79 264.6 14.1 262 23.8
2003-03-25 10:36:45 51°27.675 2°50.429 248.9 14.3 246 24.2
2003-03-25 10:37:46 51°27.556 2°50.097 238.4 14.3 236 24.3
2003-03-25 10:38:45 51°27.41 2°49.804 228 14.3 226 23.6
2003-03-25 10:39:46 51°27.199 2°49.629 196.7 14.1 197 22.6
2003-03-25 10:40:45 51°26.976 2°49.666 160.4 13.7 160 21.4
2003-03-25 10:41:45 51°26.781 2°49.851 150.2 13.8 148 18.2
2003-03-25 10:42:46 51°26.573 2°50.031 153.8 13.9 153 22.4
2003-03-25 10:43:45 51°26.366 2°50.185 160.3 14.1 159 22.8
2003-03-25 10:44:45 51°26.134 2°50.231 185.2 14.4 184 22.8
2003-03-25 10:45:45 51°25.912 2°50.098 216.2 14.5 214 22.3
2003-03-25 10:46:45 51°25.765 2°49.794 246.7 14.6 242 22.5
2003-03-25 10:47:45 51°25.65 2°49.446 245.6 14.7 241 22.5
2003-03-25 10:48:45 51°25.532 2°49.103 245.1 14.7 241 22.9
2003-03-25 10:49:45 51°25.413 2°48.765 244.7 14.7 241 25
2003-03-25 10:50:45 51°25.291 2°48.429 243.8 14.6 240 28.9
2003-03-25 10:51:46 51°25.165 2°48.085 243.5 14.7 240 29
2003-03-25 10:52:45 51°25.043 2°47.755 243.1 14.7 239 27.1
2003-03-25 10:53:46 51°24.916 2°47.413 242.6 14.7 239 29.9
2003-03-25 10:54:45 51°24.81 2°47.122 243.3 10.3 240 28.4
2003-03-25 10:55:45 51°24.764 2°46.873 273 10.6 268 27
2003-03-25 10:56:45 51°24.84 2°46.598 320.8 12.2 311 24.9
2003-03-25 10:57:45 51°25.008 2°46.353 327.5 14.2 319 24.2
2003-03-25 10:58:45 51°25.201 2°46.149 350.8 13.2 340 24.9
2003-03-25 10:59:45 51°25.418 2°46.044 337.2 14 330 24.1
2003-03-25 11:00:45 51°25.612 2°45.835 336.3 14.1 329 22.9
2003-03-25 11:01:45 51°25.794 2°45.658 336.7 10.4 328 24.6
2003-03-25 11:02:45 51°25.912 2°45.538 339 8.6 330 25.8
2003-03-25 11:03:45 51°26.046 2°45.415 341.3 9.5 332 23.3
2003-03-25 11:04:45 51°26.182 2°45.277 337.1 9.6 328 25.7
2003-03-25 11:05:45 51°26.313 2°45.147 339.6 10.1 329 26.7
2003-03-25 11:06:45 51°26.45 2°45.017 340.7 9.7 332 27.2
2003-03-25 11:07:45 51°26.585 2°44.876 335 9.7 326 27.4
2003-03-25 11:08:45 51°26.723 2°44.74 336.7 9.7 328 27.4
2003-03-25 11:09:45 51°26.863 2°44.61 338.3 9.7 330 26.3
2003-03-25 11:10:45 51°26.976 2°44.433 306.4 9.8 300 26
2003-03-25 11:11:45 51°27.008 2°44.176 274.2 10.1 271 25.2
2003-03-25 11:12:45 51°26.977 2°43.91 256.2 10.3 254 23.3
2003-03-25 11:13:45 51°26.915 2°43.655 251.2 10.3 249 23.7
2003-03-25 11:14:45 51°26.852 2°43.398 251.1 10.4 249 25.9
2003-03-25 11:15:45 51°26.791 2°43.139 251 10.4 250 27.6
2003-03-25 11:16:45 51°26.736 2°42.912 250.9 8 249 28.3
2003-03-25 11:17:45 51°26.693 2°42.731 250.9 7 249 29.2
2003-03-25 11:18:45 51°26.653 2°42.563 251 6.7 249 27.2
2003-03-25 11:19:45 51°26.613 2°42.401 250.7 6.5 249 30.3
2003-03-25 11:20:45 51°26.573 2°42.238 251.4 6.5 249 30.1
2003-03-25 11:21:45 51°26.534 2°42.075 251.1 6.6 249 29.5
2003-03-25 11:22:45 51°26.49 2°41.934 231.9 4.9 235 29.1
2003-03-25 11:23:45 51°26.443 2°41.863 209.2 3.3 217 28.7
2003-03-25 11:24:45 51°26.402 2°41.826 191.6 2.5 206 28.3
2003-03-25 11:25:45 51°26.368 2°41.804 185.8 2.2 204 28.5
2003-03-25 11:26:45 51°26.338 2°41.78 185.6 2 205 28.5
2003-03-25 11:27:45 51°26.31 2°41.757 184.3 1.9 208 28.3
2003-03-25 11:28:45 51°26.286 2°41.73 185.8 1.8 211 28.1
2003-03-25 11:29:45 51°26.209 2°41.715 176.1 9.1 180 27.7
2003-03-25 11:30:45 51°25.989 2°41.697 184.4 14.2 186 28
2003-03-25 11:31:45 51°25.801 2°41.658 181.9 8.9 186 26
2003-03-25 11:32:45 51°25.671 2°41.646 178.1 8.1 183 25.4
2003-03-25 11:33:45 51°25.527 2°41.62 182.1 9 187 27.1
2003-03-25 11:34:45 51°25.377 2°41.587 184.2 9.2 188 25.5
2003-03-25 11:35:45 51°25.224 2°41.555 184.1 9.3 188 25.7
2003-03-25 11:36:45 51°25.071 2°41.52 185.4 9.3 189 25.6
2003-03-25 11:37:45 51°24.916 2°41.484 184.9 9.3 189 23.7
2003-03-25 11:38:45 51°24.762 2°41.448 185.2 9.4 189 26
2003-03-25 11:39:45 51°24.607 2°41.414 186.3 9.3 188 25.4
2003-03-25 11:40:45 51°24.451 2°41.381 187.7 9.6 188 26.5
2003-03-25 11:41:45 51°24.296 2°41.345 187.7 9.5 188 25.6
2003-03-25 11:42:45 51°24.139 2°41.305 188.3 9.5 189 25.4
2003-03-25 11:43:45 51°23.98 2°41.264 189 9.6 190 28.1
2003-03-25 11:44:45 51°23.822 2°41.222 189.5 9.6 190 28.4
2003-03-25 11:45:45 51°23.666 2°41.179 189.5 9.6 190 26.2
2003-03-25 11:46:45 51°23.51 2°41.121 200.2 9.7 199 29.8
2003-03-25 11:47:45 51°23.374 2°40.987 224.1 9.7 220 28.3
2003-03-25 11:48:45 51°23.289 2°40.775 257 9.5 249 29.1
2003-03-25 11:49:46 51°23.248 2°40.528 262.9 9.5 255 28.6
2003-03-25 11:50:45 51°23.205 2°40.29 256 9.6 250 29
2003-03-25 11:51:45 51°23.138 2°40.056 251.2 9.7 245 29.5
2003-03-25 11:52:45 51°23.07 2°39.822 250.4 9.7 245 29.4
2003-03-25 11:53:45 51°23 2°39.591 250.5 9.7 245 29.3
2003-03-25 11:54:45 51°22.929 2°39.358 249.5 9.8 243 29.2
2003-03-25 11:55:45 51°22.856 2°39.125 249.4 9.7 244 29.3
2003-03-25 11:56:45 51°22.784 2°38.891 249.5 9.8 244 29.7
2003-03-25 11:57:45 51°22.714 2°38.658 249.4 9.8 244 29.4
2003-03-25 11:58:45 51°22.644 2°38.425 249.1 9.8 244 29.3
2003-03-25 11:59:45 51°22.569 2°38.195 243.1 9.7 239 29.7
2003-03-25 12:00:45 51°22.477 2°37.983 238.9 9.7 235 29.2
2003-03-25 12:01:45 51°22.386 2°37.771 240.1 9.7 236 29.9
2003-03-25 12:02:45 51°22.293 2°37.56 236 9.9 234 29.9
2003-03-25 12:03:45 51°22.174 2°37.382 218.8 9.9 218 29.9
2003-03-25 12:04:45 51°22.047 2°37.218 218.7 9.9 219 29.6
2003-03-25 12:05:45 51°21.919 2°37.05 219.3 10 220 31.3
2003-03-25 12:06:45 51°21.791 2°36.884 219.8 9.9 221 31.2
2003-03-25 12:07:45 51°21.665 2°36.711 219.9 10 221 30.6
2003-03-25 12:08:45 51°21.538 2°36.545 212.3 9.7 215 31.9
2003-03-25 12:09:45 51°21.393 2°36.458 185.1 9.2 191 29.1
2003-03-25 12:10:45 51°21.243 2°36.484 158.2 9.7 164 26.6
2003-03-25 12:11:45 51°21.062 2°36.578 157.7 12.3 161 25.4
2003-03-25 12:12:45 51°20.859 2°36.682 158 13.2 161 22
2003-03-25 12:13:45 51°20.641 2°36.794 158.7 14 162 20.3
2003-03-25 12:14:45 51°20.422 2°36.911 157.4 13.9 160 21.6
2003-03-25 12:15:45 51°20.202 2°37.032 157.2 13.9 161 20.1
2003-03-25 12:16:45 51°19.986 2°37.154 156.7 14.1 161 18.6
2003-03-25 12:17:45 51°19.772 2°37.287 154.7 14 158 21.4
2003-03-25 12:18:45 51°19.555 2°37.422 154.5 14.1 158 20.6
2003-03-25 12:19:45 51°19.338 2°37.559 154.8 14.1 159 19.7
2003-03-25 12:20:44 51°19.121 2°37.688 156.5 14.2 160 17.8
2003-03-25 12:21:44 51°18.898 2°37.816 157.2 14.4 161 22
2003-03-25 12:22:45 51°18.67 2°37.942 159.2 14.3 161 24
2003-03-25 12:23:44 51°18.474 2°38.011 173.3 11.6 175 24.7
2003-03-25 12:24:45 51°18.28 2°37.959 197.2 11.8 196 24.5
2003-03-25 12:25:44 51°18.102 2°37.842 203.1 11.7 204 24.7
2003-03-25 12:26:44 51°17.926 2°37.718 201.7 11.5 204 24.9
2003-03-25 12:27:44 51°17.752 2°37.589 202.4 11.5 206 25.2
2003-03-25 12:28:45 51°17.578 2°37.452 202.9 11.5 207 26.4
2003-03-25 12:29:44 51°17.412 2°37.312 204 11.5 207 26.1
2003-03-25 12:30:45 51°17.238 2°37.165 204.7 11.7 208 26.2
2003-03-25 12:31:45 51°17.071 2°37.013 205.4 11.6 209 26
2003-03-25 12:32:45 51°16.903 2°36.865 205.6 11.6 209 27.6
2003-03-25 12:33:45 51°16.734 2°36.717 205.5 11.6 208 25.5
2003-03-25 12:34:44 51°16.569 2°36.567 208.4 11.6 210 25.5
2003-03-25 12:35:44 51°16.402 2°36.414 208.5 11.5 211 26.7
2003-03-25 12:36:45 51°16.232 2°36.257 208.2 11.5 210 26.1
2003-03-25 12:37:44 51°16.078 2°36.091 223.9 11.5 222 25.5
2003-03-25 12:38:44 51°15.954 2°35.855 232.7 11.7 232 26.4
2003-03-25 12:39:44 51°15.833 2°35.615 231.2 11.7 230 25.7
2003-03-25 12:40:44 51°15.718 2°35.365 232.8 11.7 231 26
2003-03-25 12:41:43 51°15.572 2°35.191 199.4 11.1 202 25.3
2003-03-25 12:42:45 51°15.391 2°35.079 202.1 11.4 204 25.2
2003-03-25 12:43:45 51°15.218 2°34.948 203.9 11.6 205 25.2
2003-03-25 12:44:44 51°15.048 2°34.822 203.1 11.5 205 25.5
2003-03-25 12:45:44 51°14.875 2°34.692 203.5 11.5 206 24.6
2003-03-25 12:46:44 51°14.697 2°34.571 202.1 11.4 204 23.9
2003-03-25 12:47:44 51°14.525 2°34.443 202.1 11.4 204 22.8
2003-03-25 12:48:44 51°14.354 2°34.32 200.8 11.4 203 21.9
2003-03-25 12:49:44 51°14.183 2°34.197 199.1 11.3 203 21
2003-03-25 12:50:45 51°14.004 2°34.099 191.3 11 196 20.6
2003-03-25 12:51:44 51°13.828 2°34.033 185.2 10.9 190 21.7
2003-03-25 12:52:44 51°13.65 2°33.994 183.2 10.9 187 22.4
2003-03-25 12:53:44 51°13.469 2°33.957 183.4 11.1 187 19.9
2003-03-25 12:54:44 51°13.286 2°33.972 167.5 10.8 172 13.9
2003-03-25 12:55:44 51°13.115 2°34.028 151.7 10.4 157 13.1
2003-03-25 12:56:44 51°13.025 2°34.217 100 9 103 15.6
2003-03-25 12:57:44 51°13.062 2°34.443 68.1 9.1 64 16.3
2003-03-25 12:58:44 51°13.128 2°34.666 67.3 9.2 63 16.3
2003-03-25 12:59:44 51°13.192 2°34.886 71.1 9.1 67 16.7
2003-03-25 13:00:44 51°13.253 2°35.105 70.5 9 66 16.1
2003-03-25 13:01:44 51°13.312 2°35.322 70.4 9 66 16.5
2003-03-25 13:02:45 51°13.372 2°35.549 72.3 9 68 16.7
2003-03-25 13:03:44 51°13.426 2°35.768 72.4 9.1 68 16.8
2003-03-25 13:04:44 51°13.482 2°35.995 73.7 9.1 69 16.6
2003-03-25 13:05:44 51°13.535 2°36.231 73 9.1 70 17.5
2003-03-25 13:06:44 51°13.588 2°36.452 72.4 9.2 68 18
2003-03-25 13:07:44 51°13.652 2°36.675 68.9 9.2 64 18.4
2003-03-25 13:08:44 51°13.718 2°36.893 70.2 9.2 65 18.1
2003-03-25 13:09:44 51°13.78 2°37.114 70.3 9.2 66 18.5
2003-03-25 13:10:45 51°13.841 2°37.339 70 9.1 65 18.7
2003-03-25 13:11:44 51°13.908 2°37.552 69.4 9.1 65 18.4
2003-03-25 13:12:44 51°13.973 2°37.771 68.9 9.1 65 17.2
2003-03-25 13:13:44 51°14.024 2°38.001 79.2 9.2 77 17.3
2003-03-25 13:14:44 51°14.059 2°38.238 80 9.3 78 16.5
2003-03-25 13:15:44 51°14.088 2°38.483 84.1 9.4 82 15.2
2003-03-25 13:16:44 51°14.105 2°38.728 82.6 9.4 81 12.5
2003-03-25 13:17:44 51°14.127 2°38.977 82.5 9.5 82 11.5
2003-03-25 13:18:44 51°14.151 2°39.23 82.5 9.7 83 12.8
2003-03-25 13:19:44 51°14.171 2°39.483 82.3 9.7 81 13
2003-03-25 13:20:45 51°14.189 2°39.738 82.3 9.6 81 12.9
2003-03-25 13:21:44 51°14.213 2°39.982 82.2 9.6 82 13.4
2003-03-25 13:22:44 51°14.238 2°40.232 82.1 9.5 82 13.2
2003-03-25 13:23:44 51°14.265 2°40.484 82.2 9.6 82 13.4
2003-03-25 13:24:45 51°14.286 2°40.74 82.5 9.6 81 13.8
2003-03-25 13:25:44 51°14.308 2°40.987 82.5 9.6 82 14
2003-03-25 13:26:44 51°14.332 2°41.234 82.1 9.3 81 13.8
2003-03-25 13:27:45 51°14.354 2°41.479 82.2 9.2 81 13.9
2003-03-25 13:28:44 51°14.374 2°41.714 82 9.1 81 15.1
2003-03-25 13:29:44 51°14.399 2°41.953 82.2 9.1 81 16
2003-03-25 13:30:45 51°14.423 2°42.197 82.5 9.1 81 16.7
2003-03-25 13:31:45 51°14.445 2°42.434 82.2 9.1 81 16.9
2003-03-25 13:32:45 51°14.47 2°42.672 82.3 9.1 81 17.1
2003-03-25 13:33:44 51°14.491 2°42.907 82.2 9.1 81 17
2003-03-25 13:34:44 51°14.516 2°43.148 82.4 9.2 81 16.9
2003-03-25 13:35:45 51°14.54 2°43.392 82.1 9.2 81 16.7
2003-03-25 13:36:45 51°14.559 2°43.633 82.1 9.1 82 15.8
2003-03-25 13:37:44 51°14.583 2°43.869 82.1 9.2 81 16
2003-03-25 13:38:44 51°14.609 2°44.111 82.2 9.3 81 15.8
2003-03-25 13:39:44 51°14.631 2°44.354 82.3 9.3 81 15
2003-03-25 13:40:44 51°14.657 2°44.597 82.7 9.3 81 14.3
2003-03-25 13:41:45 51°14.684 2°44.844 82.4 9.4 81 13.7
2003-03-25 13:42:45 51°14.708 2°45.09 82.3 9.4 82 12.6
2003-03-25 13:43:44 51°14.733 2°45.331 82.3 9.5 81 11.7
2003-03-25 13:44:45 51°14.76 2°45.585 82 9.6 81 10.8
2003-03-25 13:45:44 51°14.787 2°45.833 82 9.6 80 9.8
2003-03-25 13:46:44 51°14.815 2°46.087 82 9.7 80 9
2003-03-25 13:47:44 51°14.845 2°46.342 82.2 9.8 81 8.9
2003-03-25 13:48:44 51°14.872 2°46.599 82.1 9.8 80 8.9
2003-03-25 13:49:44 51°14.895 2°46.834 82.2 7.1 82 9.4
2003-03-25 13:50:45 51°14.91 2°46.971 75.5 4 79 9.9
2003-03-25 13:51:45 51°14.942 2°47.084 57.7 6.2 56 9.9
2003-03-25 13:52:45 51°15.067 2°47.125 353.3 9.3 345 9.1
2003-03-25 13:53:45 51°15.142 2°46.892 274.9 11.5 270 9.9
2003-03-25 13:54:45 51°15.079 2°46.563 257.4 13.8 252 10.3
2003-03-25 13:55:45 51°15.006 2°46.2 257 14.7 252 11
2003-03-25 13:56:45 51°14.934 2°45.824 258.3 14.9 253 11.7
2003-03-25 13:57:45 51°14.864 2°45.443 259.1 15 254 12.9
2003-03-25 13:58:45 51°14.795 2°45.064 260.9 14.9 255 13.7
2003-03-25 13:59:45 51°14.731 2°44.682 260.8 14.9 255 14.7
2003-03-25 14:00:45 51°14.668 2°44.301 261.2 14.9 255 15.4
2003-03-25 14:01:45 51°14.604 2°43.918 260.6 14.9 255 16.1
2003-03-25 14:02:44 51°14.508 2°43.579 220.2 14.1 221 15.7
2003-03-25 14:03:45 51°14.324 2°43.591 142.5 9.2 149 15.6
2003-03-25 14:04:45 51°14.276 2°43.779 88.2 8.3 89 14.6
2003-03-25 14:05:44 51°14.304 2°44.007 81.2 9.2 79 13.9
2003-03-25 14:06:45 51°14.341 2°44.246 75.1 9.3 73 13
2003-03-25 14:07:44 51°14.39 2°44.476 73.9 9.3 71 12.2
2003-03-25 14:08:44 51°14.442 2°44.712 73.7 9.4 71 11.6
2003-03-25 14:09:45 51°14.493 2°44.95 73.7 9.5 71 11
2003-03-25 14:10:45 51°14.546 2°45.193 74.2 10 71 10.2
2003-03-25 14:11:45 51°14.593 2°45.434 76.1 9.6 73 9.4
2003-03-25 14:12:45 51°14.64 2°45.675 75 9.6 72 8.9
2003-03-25 14:13:44 51°14.687 2°45.913 75.3 9.9 72 8.7
2003-03-25 14:14:44 51°14.738 2°46.17 75.6 10.1 73 8.9
2003-03-25 14:15:44 51°14.788 2°46.42 75.4 10.1 73 9.2
2003-03-25 14:16:45 51°14.84 2°46.684 75.4 10.2 73 9.6
2003-03-25 14:17:45 51°14.889 2°46.941 75.4 10.1 73 10.2
2003-03-25 14:18:44 51°14.935 2°47.191 77.6 10.1 75 10.8
2003-03-25 14:19:45 51°14.977 2°47.454 78.5 10.1 76 11.8
2003-03-25 14:20:45 51°15.016 2°47.717 79.4 10.1 77 12.7
2003-03-25 14:21:45 51°15.056 2°47.982 80.1 10.1 78 13.1
2003-03-25 14:22:45 51°15.09 2°48.246 80.3 10.1 78 13.2
2003-03-25 14:23:45 51°15.124 2°48.508 80.4 10.1 78 13.1
2003-03-25 14:24:45 51°15.157 2°48.765 80.5 10 79 13
2003-03-25 14:25:45 51°15.187 2°49.029 81.3 10.1 80 13
2003-03-25 14:26:45 51°15.217 2°49.29 81.4 10 80 13.1
2003-03-25 14:27:45 51°15.244 2°49.548 81.2 10 80 13.2
2003-03-25 14:28:45 51°15.273 2°49.81 81 10 80 13.3
2003-03-25 14:29:45 51°15.303 2°50.075 81.2 10 80 13.2
2003-03-25 14:30:45 51°15.333 2°50.335 80.5 10 79 13.2
2003-03-25 14:31:45 51°15.366 2°50.597 79.8 10 78 13.1
2003-03-25 14:32:45 51°15.397 2°50.856 84.3 10 81 13.2
2003-03-25 14:33:45 51°15.404 2°51.12 90.1 10.1 89 13.1
2003-03-25 14:34:45 51°15.407 2°51.385 89.7 10 89 12.9
2003-03-25 14:35:44 51°15.393 2°51.648 100.6 10.2 100 12.7
2003-03-25 14:36:45 51°15.336 2°51.91 111.8 10.3 112 12.3
2003-03-25 14:37:45 51°15.273 2°52.165 110.7 10.4 111 12
2003-03-25 14:38:45 51°15.208 2°52.42 110.4 10.3 112 11.6
2003-03-25 14:39:45 51°15.147 2°52.664 109.1 8.9 112 11.1
2003-03-25 14:40:45 51°15.101 2°52.848 109.5 6.7 112 10.8
2003-03-25 14:41:44 51°15.063 2°52.995 109.1 5.9 112 10.7
2003-03-25 14:42:45 51°15.042 2°53.13 77.4 4.3 81 10.6
2003-03-25 14:43:45 51°15.09 2°53.163 356.7 3.5 347 17.1
2003-03-25 14:44:46 51°15.125 2°53.07 297.2 4.8 286 17.9
2003-03-25 14:45:44 51°15.151 2°52.938 303.3 5.7 290 18.2
2003-03-25 14:46:45 51°15.185 2°52.785 301.5 6 288 18.9
2003-03-25 14:47:45 51°15.213 2°52.633 301.9 6.1 288 19.5
2003-03-25 14:48:45 51°15.246 2°52.487 303.4 5.4 291 19.9
2003-03-25 14:49:46 51°15.279 2°52.358 301.4 5.2 292 20.3
2003-03-25 14:50:45 51°15.307 2°52.236 299.6 5.1 289 20.6
2003-03-25 14:51:45 51°15.334 2°52.108 300.1 5.1 289 21.2
2003-03-25 14:52:46 51°15.364 2°51.977 300.2 5.1 290 21.6
2003-03-25 14:53:44 51°15.394 2°51.837 295.1 7.6 287 22
2003-03-25 14:54:45 51°15.409 2°51.576 274.3 10.6 269 22.3
2003-03-25 14:55:45 51°15.399 2°51.287 268.5 11.1 264 22.6
2003-03-25 14:56:46 51°15.377 2°50.992 269.1 11.1 264 23
2003-03-25 14:57:45 51°15.354 2°50.708 267.7 11 262 23.1
2003-03-25 14:58:46 51°15.317 2°50.416 263.5 11 257 23.4
2003-03-25 14:59:45 51°15.279 2°50.138 264 10.9 258 23.5
2003-03-25 15:00:46 51°15.241 2°49.848 264 10.9 258 23.3
2003-03-25 15:01:45 51°15.204 2°49.57 264.3 10.8 258 23.3
2003-03-25 15:02:45 51°15.174 2°49.35 264.5 7.4 257 23.4
2003-03-25 15:03:45 51°15.147 2°49.155 264.4 7.7 258 23.7
2003-03-25 15:04:45 51°15.119 2°48.953 264.2 7.8 258 23.4
2003-03-25 15:05:45 51°15.092 2°48.752 264.6 7.8 259 23.3
2003-03-25 15:06:45 51°15.063 2°48.552 264.2 7.7 258 23.6
2003-03-25 15:07:45 51°15.036 2°48.352 264.3 7.7 258 24.4
2003-03-25 15:08:45 51°15.011 2°48.15 264.3 7.7 258 14.2
2003-03-25 15:09:46 51°14.983 2°47.949 264.1 7.7 258 14.1
2003-03-25 15:10:45 51°14.955 2°47.754 264 7.7 258 14.2
2003-03-25 15:11:45 51°14.93 2°47.556 264.2 7.6 258 14
2003-03-25 15:12:45 51°14.903 2°47.358 264.1 7.6 258 13.6
2003-03-25 15:13:46 51°14.875 2°47.162 264.1 7.6 258 12.9
2003-03-25 15:14:45 51°14.852 2°46.965 264.1 7.6 258 12.1
2003-03-25 15:15:46 51°14.824 2°46.77 264.1 7.5 258 11.5
2003-03-25 15:16:45 51°14.797 2°46.578 264.3 7.6 258 10.9
2003-03-25 15:17:45 51°14.774 2°46.4 264.1 6.2 258 10.4
2003-03-25 15:18:45 51°14.752 2°46.232 264.1 6.9 258 10.2
2003-03-25 15:19:45 51°14.727 2°46.048 264.6 7.3 258 10.1
2003-03-25 15:20:45 51°14.7 2°45.859 264.1 7.4 258 10.2
2003-03-25 15:21:45 51°14.675 2°45.665 264.3 7.5 258 10.7
2003-03-25 15:22:45 51°14.65 2°45.47 264.2 7.4 258 11.4
2003-03-25 15:23:45 51°14.625 2°45.279 264.1 7.6 258 12.2
2003-03-25 15:24:45 51°14.6 2°45.081 264.2 7.6 259 13
2003-03-25 15:25:45 51°14.574 2°44.884 264.5 7.6 259 13.8
2003-03-25 15:26:45 51°14.551 2°44.684 264.3 7.7 260 14.8
2003-03-25 15:27:45 51°14.528 2°44.486 264.2 7.7 260 15.5
2003-03-25 15:28:45 51°14.505 2°44.287 264.2 7.7 260 16.1
2003-03-25 15:29:45 51°14.483 2°44.108 263.4 6.3 259 16.6
2003-03-25 15:30:46 51°14.463 2°43.94 264.4 6.8 260 17.1
2003-03-25 15:31:45 51°14.442 2°43.754 264.4 7.4 260 17.6
2003-03-25 15:32:45 51°14.42 2°43.557 264.7 7.6 260 18
2003-03-25 15:33:45 51°14.396 2°43.356 264 7.6 258 18.1
2003-03-25 15:34:45 51°14.371 2°43.158 264.3 7.7 259 18.3
2003-03-25 15:35:45 51°14.345 2°42.962 264.6 7.6 259 18.6
2003-03-25 15:36:45 51°14.319 2°42.766 264.4 7.6 258 18.7
2003-03-25 15:37:46 51°14.293 2°42.567 264.8 7.6 259 18.9
2003-03-25 15:38:45 51°14.265 2°42.373 253.7 7.6 252 18.8
2003-03-25 15:39:45 51°14.18 2°42.245 205.4 7.1 205 18.8
2003-03-25 15:40:45 51°14.066 2°42.257 157.6 7 158 18.4
2003-03-25 15:41:45 51°13.996 2°42.394 109.9 6.8 110 17.8
2003-03-25 15:42:45 51°14.015 2°42.567 63.1 6.8 62 17.5
2003-03-25 15:43:45 51°14.08 2°42.725 64.2 7.3 60 17.7
2003-03-25 15:44:45 51°14.131 2°42.902 69.5 7.5 66 17.6
2003-03-25 15:45:45 51°14.181 2°43.086 69.9 7.6 67 17.9
2003-03-25 15:46:45 51°14.225 2°43.237 66.7 5.2 64 18
2003-03-25 15:47:45 51°14.255 2°43.335 67.5 3.6 66 17.9
2003-03-25 15:48:45 51°14.274 2°43.409 68.1 2.8 67 17.9
2003-03-25 15:49:45 51°14.303 2°43.521 72.8 6.6 69 17.6
2003-03-25 15:50:45 51°14.36 2°43.784 74.9 12.4 71 17.1
2003-03-25 15:51:45 51°14.434 2°44.13 75.8 14.2 72 16.2
2003-03-25 15:52:46 51°14.508 2°44.499 77.6 14.6 73 15.5
2003-03-25 15:53:45 51°14.571 2°44.856 78 14.3 74 14.2
2003-03-25 15:54:45 51°14.633 2°45.22 79.4 14.3 75 13
2003-03-25 15:55:45 51°14.694 2°45.588 79.5 14.4 76 11.8
2003-03-25 15:56:45 51°14.754 2°45.954 79 14.3 75 10.8
2003-03-25 15:57:45 51°14.811 2°46.323 80.3 14.3 77 10.8
2003-03-25 15:58:45 51°14.867 2°46.692 80 14.3 76 11.2
2003-03-25 15:59:45 51°14.922 2°47.064 80.5 14.5 76 12.2
2003-03-25 16:00:46 51°14.979 2°47.442 81.4 14.4 77 13.4
2003-03-25 16:01:46 51°15.03 2°47.816 81 14.4 77 14.7
2003-03-25 16:02:45 51°15.083 2°48.18 81.6 14.3 78 15
2003-03-25 16:03:45 51°15.134 2°48.552 81.1 14.4 77 15
2003-03-25 16:04:45 51°15.185 2°48.924 81.1 14.3 77 14.9
2003-03-25 16:05:45 51°15.237 2°49.297 81.4 14.5 77 14.9
2003-03-25 16:06:45 51°15.287 2°49.671 82 14.4 78 14.9
2003-03-25 16:07:45 51°15.335 2°50.045 82.7 14.4 78 15.1
2003-03-25 16:08:45 51°15.486 2°50.271 8.5 13.1 9 15
2003-03-25 16:09:44 51°15.615 2°50.063 276.1 12.5 277 15.1
2003-03-25 16:10:46 51°15.539 2°49.735 259.1 13.2 256 15.2
2003-03-25 16:11:45 51°15.465 2°49.411 253.8 13.4 250 15.1
2003-03-25 16:12:45 51°15.386 2°49.079 253.6 13.5 249 15.1
2003-03-25 16:13:44 51°15.311 2°48.748 254.7 13.5 250 15.1
2003-03-25 16:14:45 51°15.235 2°48.405 255.2 13.4 248 14.8
2003-03-25 16:15:45 51°15.162 2°48.069 255 13.4 251 14.2
2003-03-25 16:16:45 51°15.092 2°47.735 255.3 13.2 252 13.1
2003-03-25 16:17:45 51°15.022 2°47.403 255.1 13.3 252 12.2
2003-03-25 16:18:45 51°14.953 2°47.068 255 13.3 251 11.9
2003-03-25 16:19:45 51°14.887 2°46.734 257.1 13.1 254 11.4
2003-03-25 16:20:45 51°14.826 2°46.4 256.9 13.2 254 11.2
2003-03-25 16:21:44 51°14.769 2°46.07 258.3 13.1 255 11.1
2003-03-25 16:22:45 51°14.715 2°45.727 259.8 13.1 256 11.8
2003-03-25 16:23:45 51°14.664 2°45.39 260.6 13.1 257 13.1
2003-03-25 16:24:45 51°14.615 2°45.051 260.2 13.1 257 14.1
2003-03-25 16:25:45 51°14.567 2°44.714 260.3 13 257 15.6
2003-03-25 16:26:45 51°14.518 2°44.372 260.4 13.1 257 16.7
2003-03-25 16:27:44 51°14.469 2°44.038 261.5 13.2 258 17.5
2003-03-25 16:28:45 51°14.423 2°43.692 261.6 13.3 258 18.3
2003-03-25 16:29:44 51°14.376 2°43.354 261.2 13.3 258 18.8
2003-03-25 16:30:45 51°14.326 2°43.005 260.9 13.4 257 19.1
2003-03-25 16:31:46 51°14.279 2°42.654 261.2 13.4 258 19.4
2003-03-25 16:32:46 51°14.232 2°42.306 261.2 13.4 258 19.4
2003-03-25 16:33:45 51°14.188 2°41.965 261.3 13.4 259 19.8
2003-03-25 16:34:45 51°14.142 2°41.615 261.1 13.5 259 19.4
2003-03-25 16:35:45 51°14.099 2°41.263 261.3 13.5 259 18.5
2003-03-25 16:36:45 51°14.055 2°40.913 261.2 13.3 259 16.6
2003-03-25 16:37:45 51°13.99 2°40.592 232.4 12.5 232 17
2003-03-25 16:38:45 51°13.804 2°40.618 143.3 12.8 139 18.2
2003-03-25 16:39:45 51°13.809 2°40.962 72.4 14.6 66 19.1
2003-03-25 16:40:44 51°13.896 2°41.321 74.6 14.9 69 19.4
2003-03-25 16:41:45 51°13.981 2°41.687 74.7 14.7 69 19.6
2003-03-25 16:42:45 51°14.067 2°42.053 74.9 14.5 70 19.5
2003-03-25 16:43:45 51°14.144 2°42.421 76.9 14.6 72 19.2
2003-03-25 16:44:45 51°14.214 2°42.789 78 14.6 73 18.9
2003-03-25 16:45:46 51°14.282 2°43.167 79.4 14.7 74 18.8
2003-03-25 16:46:44 51°14.344 2°43.528 79.4 14.7 75 18.5
2003-03-25 16:47:45 51°14.408 2°43.916 79.9 14.8 75 17.6
2003-03-25 16:48:45 51°14.469 2°44.292 80.8 14.8 76 16.7
2003-03-25 16:49:45 51°14.527 2°44.677 81.3 14.8 77 15.4
2003-03-25 16:50:45 51°14.585 2°45.061 81.1 14.9 77 14
2003-03-25 16:51:45 51°14.641 2°45.443 81.7 15 77 12.5
2003-03-25 16:52:46 51°14.7 2°45.836 81.4 15 77 11.3
2003-03-25 16:53:45 51°14.756 2°46.22 82 15 77 11.4
2003-03-25 16:54:46 51°14.81 2°46.612 82.4 15 77 12.1
2003-03-25 16:55:46 51°14.864 2°47.001 82.7 15 78 13.3
2003-03-25 16:56:45 51°14.917 2°47.381 82 15 77 14.9
2003-03-25 16:57:46 51°14.972 2°47.775 82.1 15 77 15.5
2003-03-25 16:58:46 51°15.026 2°48.161 82.3 14.9 77 15.7
2003-03-25 16:59:45 51°15.08 2°48.541 82.1 14.9 77 15.5
2003-03-25 17:00:45 51°15.133 2°48.927 82 14.9 77 15.4
2003-03-25 17:01:44 51°15.187 2°49.304 82.3 14.8 78 15.5
2003-03-25 17:02:45 51°15.243 2°49.697 82 14.9 77 15.5
2003-03-25 17:03:44 51°15.297 2°50.074 82.4 14.8 77 15.6
2003-03-25 17:04:44 51°15.354 2°50.449 82.7 13.8 77 15.5
2003-03-25 17:05:45 51°15.398 2°50.735 82.7 9.9 76 15.7
2003-03-25 17:06:44 51°15.436 2°50.976 82.3 9.4 76 15.6
2003-03-25 17:07:45 51°15.473 2°51.22 89.4 9.2 81 15.7
2003-03-25 17:08:45 51°15.465 2°51.458 113 8.9 103 15.4
2003-03-25 17:09:44 51°15.406 2°51.662 134.4 8.5 122 15.2
2003-03-25 17:10:45 51°15.325 2°51.849 124.8 8.6 116 14.9
2003-03-25 17:11:45 51°15.258 2°52.049 135.5 8.5 124 14.6
2003-03-25 17:12:45 51°15.182 2°52.239 130.4 8.5 120 14.2
2003-03-25 17:13:45 51°15.101 2°52.423 137.4 8.4 127 13.7
2003-03-25 17:14:45 51°15.025 2°52.613 130 8.6 120 13.3
2003-03-25 17:15:45 51°14.963 2°52.79 125.9 7.3 111 13
2003-03-25 17:16:45 51°14.916 2°52.949 134 6.4 119 12.8
2003-03-25 17:17:45 51°14.867 2°53.086 136 5.7 120 12.6
2003-03-25 17:18:45 51°14.825 2°53.214 131.3 5.3 115 12.5
2003-03-25 17:19:45 51°14.788 2°53.336 129.7 5 113 12.8
2003-03-25 17:20:45 51°14.757 2°53.457 130.2 4.9 111 12.7
2003-03-25 17:21:45 51°14.72 2°53.561 146.3 4.4 126 12.5
2003-03-25 17:22:44 51°14.674 2°53.648 143.2 4.3 127 12.3
2003-03-25 17:23:45 51°14.646 2°53.757 119.3 4.5 102 12.5
2003-03-25 17:24:44 51°14.635 2°53.892 112.7 6.3 98 13.5
2003-03-25 17:25:45 51°14.625 2°54.093 103.8 8 93 13.4
2003-03-25 17:26:45 51°14.611 2°54.309 105 8.3 94 13.2
2003-03-25 17:27:45 51°14.587 2°54.527 119.5 8.3 105 12.7
2003-03-25 17:28:45 51°14.532 2°54.72 134.3 8 119 12.7
2003-03-25 17:29:45 51°14.457 2°54.892 140.8 7.8 127 13.2
2003-03-25 17:30:45 51°14.373 2°55.051 147.3 7.6 135 13.1
2003-03-25 17:31:45 51°14.294 2°55.172 134.3 5.5 132 12.8
2003-03-25 17:32:45 51°14.249 2°55.262 129.8 3.9 128 12.6
2003-03-25 17:33:45 51°14.213 2°55.33 141.9 3 137 12.4
2003-03-25 17:34:45 51°14.177 2°55.368 155.7 2.2 151 12.5
2003-03-25 17:35:45 51°14.151 2°55.392 157.6 1.5 151 12.4
2003-03-25 17:36:45 51°14.137 2°55.404 159.9 0.6 155 12.4
2003-03-25 17:37:45 51°14.125 2°55.411 162.1 2.2 159 12.3
2003-03-25 17:38:45 51°14.055 2°55.464 157.9 5.8 155 12.3
2003-03-25 17:39:50 51°13.956 2°55.539 155.3 6.2 152 -999
2003-03-25 17:40:50 51°13.864 2°55.61 157.6 6 155 -999
2003-03-25 17:41:50 51°13.786 2°55.674 149.9 4.7 149 -999
2003-03-25 17:42:50 51°13.733 2°55.742 135.6 3.8 136 -999
2003-03-25 17:43:50 51°13.694 2°55.811 128.2 3.3 128 -999
2003-03-25 17:44:50 51°13.664 2°55.882 127.4 3.2 124 -999
2003-03-25 17:45:50 51°13.636 2°55.951 122.9 3 121 -999
2003-03-25 17:46:50 51°13.613 2°56.019 110.3 2.8 110 -999
2003-03-25 17:47:50 51°13.605 2°56.08 108.8 1.7 101 -999